sensor_id;sensor_type;location;lat;lon;timestamp;P1;durP1;ratioP1;P2;durP2;ratioP2
76332;SDS011;71254;53.010;6.508;2024-01-16T00:01:47;7.85;;;1.67;;
76332;SDS011;71254;53.010;6.508;2024-01-16T00:04:12;6.47;;;2.20;;
76332;SDS011;71254;53.010;6.508;2024-01-16T00:06:38;7.38;;;2.00;;
76332;SDS011;71254;53.010;6.508;2024-01-16T00:09:07;4.63;;;1.53;;
76332;SDS011;71254;53.010;6.508;2024-01-16T00:11:41;7.82;;;1.77;;
76332;SDS011;71254;53.010;6.508;2024-01-16T00:14:07;4.20;;;1.80;;
76332;SDS011;71254;53.010;6.508;2024-01-16T00:16:33;7.53;;;1.73;;
76332;SDS011;71254;53.010;6.508;2024-01-16T00:18:59;4.80;;;1.42;;
76332;SDS011;71254;53.010;6.508;2024-01-16T00:21:24;6.28;;;1.88;;
76332;SDS011;71254;53.010;6.508;2024-01-16T00:23:50;7.70;;;1.60;;
76332;SDS011;71254;53.010;6.508;2024-01-16T00:26:19;6.30;;;1.80;;
76332;SDS011;71254;53.010;6.508;2024-01-16T00:31:11;7.75;;;1.83;;
76332;SDS011;71254;53.010;6.508;2024-01-16T00:33:37;4.88;;;1.30;;
76332;SDS011;71254;53.010;6.508;2024-01-16T00:36:02;5.28;;;1.30;;
76332;SDS011;71254;53.010;6.508;2024-01-16T00:38:28;6.78;;;1.05;;
76332;SDS011;71254;53.010;6.508;2024-01-16T00:40:54;6.20;;;1.60;;
76332;SDS011;71254;53.010;6.508;2024-01-16T00:43:19;5.88;;;1.02;;
76332;SDS011;71254;53.010;6.508;2024-01-16T00:45:45;9.02;;;1.60;;
76332;SDS011;71254;53.010;6.508;2024-01-16T00:48:11;6.32;;;1.38;;
76332;SDS011;71254;53.010;6.508;2024-01-16T00:50:38;5.78;;;1.30;;
76332;SDS011;71254;53.010;6.508;2024-01-16T00:53:04;4.80;;;1.38;;
76332;SDS011;71254;53.010;6.508;2024-01-16T00:55:30;4.18;;;1.42;;
76332;SDS011;71254;53.010;6.508;2024-01-16T00:57:55;4.82;;;0.90;;
76332;SDS011;71254;53.010;6.508;2024-01-16T01:00:21;5.03;;;0.95;;
76332;SDS011;71254;53.010;6.508;2024-01-16T01:02:46;7.70;;;1.45;;
76332;SDS011;71254;53.010;6.508;2024-01-16T01:05:12;3.38;;;1.30;;
76332;SDS011;71254;53.010;6.508;2024-01-16T01:07:38;11.90;;;1.60;;
76332;SDS011;71254;53.010;6.508;2024-01-16T01:10:03;9.05;;;1.70;;
76332;SDS011;71254;53.010;6.508;2024-01-16T01:12:30;6.63;;;1.27;;
76332;SDS011;71254;53.010;6.508;2024-01-16T01:14:56;4.95;;;1.30;;
76332;SDS011;71254;53.010;6.508;2024-01-16T01:17:21;4.68;;;1.05;;
76332;SDS011;71254;53.010;6.508;2024-01-16T01:19:47;3.83;;;0.80;;
76332;SDS011;71254;53.010;6.508;2024-01-16T01:22:12;4.03;;;0.90;;
76332;SDS011;71254;53.010;6.508;2024-01-16T01:24:38;7.93;;;1.15;;
76332;SDS011;71254;53.010;6.508;2024-01-16T01:27:04;3.72;;;0.98;;
76332;SDS011;71254;53.010;6.508;2024-01-16T01:29:30;3.97;;;0.85;;
76332;SDS011;71254;53.010;6.508;2024-01-16T01:31:56;7.55;;;1.00;;
76332;SDS011;71254;53.010;6.508;2024-01-16T01:34:22;3.00;;;0.95;;
76332;SDS011;71254;53.010;6.508;2024-01-16T01:36:47;4.68;;;1.40;;
76332;SDS011;71254;53.010;6.508;2024-01-16T01:39:13;5.07;;;0.98;;
76332;SDS011;71254;53.010;6.508;2024-01-16T01:41:38;4.85;;;1.27;;
76332;SDS011;71254;53.010;6.508;2024-01-16T01:44:05;2.83;;;1.20;;
76332;SDS011;71254;53.010;6.508;2024-01-16T01:46:31;4.30;;;0.82;;
76332;SDS011;71254;53.010;6.508;2024-01-16T01:48:59;2.25;;;1.02;;
76332;SDS011;71254;53.010;6.508;2024-01-16T01:51:25;4.22;;;0.93;;
76332;SDS011;71254;53.010;6.508;2024-01-16T01:53:51;5.72;;;0.60;;
76332;SDS011;71254;53.010;6.508;2024-01-16T01:56:18;5.57;;;1.00;;
76332;SDS011;71254;53.010;6.508;2024-01-16T01:58:46;3.17;;;0.77;;
76332;SDS011;71254;53.010;6.508;2024-01-16T02:01:13;5.80;;;0.80;;
76332;SDS011;71254;53.010;6.508;2024-01-16T02:03:43;2.50;;;1.08;;
76332;SDS011;71254;53.010;6.508;2024-01-16T02:06:10;4.82;;;1.17;;
76332;SDS011;71254;53.010;6.508;2024-01-16T02:08:37;5.15;;;0.77;;
76332;SDS011;71254;53.010;6.508;2024-01-16T02:11:07;7.93;;;1.50;;
76332;SDS011;71254;53.010;6.508;2024-01-16T02:13:32;3.22;;;0.90;;
76332;SDS011;71254;53.010;6.508;2024-01-16T02:15:58;4.85;;;0.90;;
76332;SDS011;71254;53.010;6.508;2024-01-16T02:18:24;4.25;;;1.10;;
76332;SDS011;71254;53.010;6.508;2024-01-16T02:20:50;5.32;;;1.17;;
76332;SDS011;71254;53.010;6.508;2024-01-16T02:25:51;5.22;;;1.35;;
76332;SDS011;71254;53.010;6.508;2024-01-16T02:28:16;5.20;;;1.20;;
76332;SDS011;71254;53.010;6.508;2024-01-16T02:30:42;4.63;;;1.02;;
76332;SDS011;71254;53.010;6.508;2024-01-16T02:33:08;2.15;;;1.40;;
76332;SDS011;71254;53.010;6.508;2024-01-16T02:35:38;5.50;;;1.10;;
76332;SDS011;71254;53.010;6.508;2024-01-16T02:38:04;4.07;;;1.00;;
76332;SDS011;71254;53.010;6.508;2024-01-16T02:40:30;4.72;;;1.30;;
76332;SDS011;71254;53.010;6.508;2024-01-16T02:42:55;2.88;;;1.05;;
76332;SDS011;71254;53.010;6.508;2024-01-16T02:45:21;6.22;;;1.65;;
76332;SDS011;71254;53.010;6.508;2024-01-16T02:47:47;3.28;;;1.30;;
76332;SDS011;71254;53.010;6.508;2024-01-16T02:50:13;3.25;;;1.25;;
76332;SDS011;71254;53.010;6.508;2024-01-16T02:52:38;4.60;;;1.13;;
76332;SDS011;71254;53.010;6.508;2024-01-16T02:55:04;3.97;;;1.05;;
76332;SDS011;71254;53.010;6.508;2024-01-16T02:57:30;6.10;;;1.88;;
76332;SDS011;71254;53.010;6.508;2024-01-16T02:59:56;7.70;;;1.65;;
76332;SDS011;71254;53.010;6.508;2024-01-16T03:02:21;4.15;;;1.00;;
76332;SDS011;71254;53.010;6.508;2024-01-16T03:04:48;3.92;;;1.02;;
76332;SDS011;71254;53.010;6.508;2024-01-16T03:07:15;5.82;;;1.17;;
76332;SDS011;71254;53.010;6.508;2024-01-16T03:09:40;4.10;;;1.13;;
76332;SDS011;71254;53.010;6.508;2024-01-16T03:12:06;2.67;;;0.88;;
76332;SDS011;71254;53.010;6.508;2024-01-16T03:14:31;5.63;;;1.40;;
76332;SDS011;71254;53.010;6.508;2024-01-16T03:17:02;3.63;;;1.00;;
76332;SDS011;71254;53.010;6.508;2024-01-16T03:19:31;4.70;;;1.08;;
76332;SDS011;71254;53.010;6.508;2024-01-16T03:21:56;5.10;;;1.50;;
76332;SDS011;71254;53.010;6.508;2024-01-16T03:24:22;4.65;;;1.30;;
76332;SDS011;71254;53.010;6.508;2024-01-16T03:26:48;5.75;;;1.42;;
76332;SDS011;71254;53.010;6.508;2024-01-16T03:29:13;4.28;;;1.25;;
76332;SDS011;71254;53.010;6.508;2024-01-16T03:31:39;9.27;;;1.45;;
76332;SDS011;71254;53.010;6.508;2024-01-16T03:34:05;3.33;;;0.93;;
76332;SDS011;71254;53.010;6.508;2024-01-16T03:36:30;4.63;;;1.20;;
76332;SDS011;71254;53.010;6.508;2024-01-16T03:38:56;5.40;;;2.28;;
76332;SDS011;71254;53.010;6.508;2024-01-16T03:41:21;4.80;;;1.50;;
76332;SDS011;71254;53.010;6.508;2024-01-16T03:43:47;7.72;;;1.20;;
76332;SDS011;71254;53.010;6.508;2024-01-16T03:46:13;5.18;;;1.77;;
76332;SDS011;71254;53.010;6.508;2024-01-16T03:48:41;3.92;;;1.10;;
76332;SDS011;71254;53.010;6.508;2024-01-16T03:51:07;8.05;;;1.80;;
76332;SDS011;71254;53.010;6.508;2024-01-16T03:53:33;4.93;;;1.90;;
76332;SDS011;71254;53.010;6.508;2024-01-16T03:56:08;7.55;;;1.38;;
76332;SDS011;71254;53.010;6.508;2024-01-16T03:58:34;4.13;;;1.40;;
76332;SDS011;71254;53.010;6.508;2024-01-16T04:00:59;4.65;;;1.17;;
76332;SDS011;71254;53.010;6.508;2024-01-16T04:03:25;4.43;;;1.35;;
76332;SDS011;71254;53.010;6.508;2024-01-16T04:05:50;6.60;;;1.77;;
76332;SDS011;71254;53.010;6.508;2024-01-16T04:08:16;4.95;;;1.20;;
76332;SDS011;71254;53.010;6.508;2024-01-16T04:10:41;3.20;;;1.13;;
76332;SDS011;71254;53.010;6.508;2024-01-16T04:13:07;4.10;;;1.08;;
76332;SDS011;71254;53.010;6.508;2024-01-16T04:15:33;4.55;;;1.08;;
76332;SDS011;71254;53.010;6.508;2024-01-16T04:17:59;10.18;;;1.40;;
76332;SDS011;71254;53.010;6.508;2024-01-16T04:20:25;3.72;;;2.17;;
76332;SDS011;71254;53.010;6.508;2024-01-16T04:22:50;6.80;;;1.20;;
76332;SDS011;71254;53.010;6.508;2024-01-16T04:25:19;5.32;;;1.25;;
76332;SDS011;71254;53.010;6.508;2024-01-16T04:27:45;4.93;;;0.95;;
76332;SDS011;71254;53.010;6.508;2024-01-16T04:30:11;6.10;;;1.20;;
76332;SDS011;71254;53.010;6.508;2024-01-16T04:32:40;4.10;;;1.08;;
76332;SDS011;71254;53.010;6.508;2024-01-16T04:35:05;4.70;;;1.40;;
76332;SDS011;71254;53.010;6.508;2024-01-16T04:37:34;8.85;;;1.52;;
76332;SDS011;71254;53.010;6.508;2024-01-16T04:40:00;3.13;;;0.93;;
76332;SDS011;71254;53.010;6.508;2024-01-16T04:42:25;6.38;;;1.48;;
76332;SDS011;71254;53.010;6.508;2024-01-16T04:44:51;3.55;;;1.20;;
76332;SDS011;71254;53.010;6.508;2024-01-16T04:47:19;5.68;;;1.65;;
76332;SDS011;71254;53.010;6.508;2024-01-16T04:49:45;5.47;;;1.52;;
76332;SDS011;71254;53.010;6.508;2024-01-16T04:52:11;5.25;;;1.45;;
76332;SDS011;71254;53.010;6.508;2024-01-16T04:54:39;4.18;;;1.10;;
76332;SDS011;71254;53.010;6.508;2024-01-16T04:57:04;5.25;;;1.38;;
76332;SDS011;71254;53.010;6.508;2024-01-16T04:59:33;4.82;;;1.13;;
76332;SDS011;71254;53.010;6.508;2024-01-16T05:01:58;8.07;;;1.42;;
76332;SDS011;71254;53.010;6.508;2024-01-16T05:04:26;2.13;;;0.85;;
76332;SDS011;71254;53.010;6.508;2024-01-16T05:06:52;6.72;;;1.27;;
76332;SDS011;71254;53.010;6.508;2024-01-16T05:09:18;8.70;;;1.38;;
76332;SDS011;71254;53.010;6.508;2024-01-16T05:11:46;6.88;;;1.35;;
76332;SDS011;71254;53.010;6.508;2024-01-16T05:14:12;3.30;;;1.42;;
76332;SDS011;71254;53.010;6.508;2024-01-16T05:16:38;7.13;;;1.35;;
76332;SDS011;71254;53.010;6.508;2024-01-16T05:19:03;7.85;;;1.65;;
76332;SDS011;71254;53.010;6.508;2024-01-16T05:21:29;7.45;;;1.17;;
76332;SDS011;71254;53.010;6.508;2024-01-16T05:23:54;7.75;;;1.50;;
76332;SDS011;71254;53.010;6.508;2024-01-16T05:26:21;4.18;;;1.10;;
76332;SDS011;71254;53.010;6.508;2024-01-16T05:28:47;5.55;;;1.33;;
76332;SDS011;71254;53.010;6.508;2024-01-16T05:31:12;6.00;;;1.52;;
76332;SDS011;71254;53.010;6.508;2024-01-16T05:33:38;3.78;;;1.20;;
76332;SDS011;71254;53.010;6.508;2024-01-16T05:36:04;6.07;;;1.10;;
76332;SDS011;71254;53.010;6.508;2024-01-16T05:38:30;9.63;;;1.48;;
76332;SDS011;71254;53.010;6.508;2024-01-16T05:40:56;5.03;;;1.75;;
76332;SDS011;71254;53.010;6.508;2024-01-16T05:43:22;7.72;;;1.52;;
76332;SDS011;71254;53.010;6.508;2024-01-16T05:45:47;7.15;;;1.10;;
76332;SDS011;71254;53.010;6.508;2024-01-16T05:48:13;5.70;;;1.50;;
76332;SDS011;71254;53.010;6.508;2024-01-16T05:50:39;9.95;;;1.73;;
76332;SDS011;71254;53.010;6.508;2024-01-16T05:53:04;6.40;;;1.10;;
76332;SDS011;71254;53.010;6.508;2024-01-16T05:55:31;6.45;;;1.48;;
76332;SDS011;71254;53.010;6.508;2024-01-16T05:57:57;6.78;;;1.20;;
76332;SDS011;71254;53.010;6.508;2024-01-16T06:00:24;8.65;;;2.53;;
76332;SDS011;71254;53.010;6.508;2024-01-16T06:02:50;6.07;;;1.23;;
76332;SDS011;71254;53.010;6.508;2024-01-16T06:05:16;4.75;;;1.20;;
76332;SDS011;71254;53.010;6.508;2024-01-16T06:07:41;2.55;;;0.98;;
76332;SDS011;71254;53.010;6.508;2024-01-16T06:10:07;4.32;;;1.00;;
76332;SDS011;71254;53.010;6.508;2024-01-16T06:12:33;3.53;;;0.90;;
76332;SDS011;71254;53.010;6.508;2024-01-16T06:14:59;4.10;;;1.02;;
76332;SDS011;71254;53.010;6.508;2024-01-16T06:17:25;3.75;;;1.27;;
76332;SDS011;71254;53.010;6.508;2024-01-16T06:19:50;4.72;;;1.33;;
76332;SDS011;71254;53.010;6.508;2024-01-16T06:22:16;8.90;;;1.60;;
76332;SDS011;71254;53.010;6.508;2024-01-16T06:24:42;4.38;;;1.00;;
76332;SDS011;71254;53.010;6.508;2024-01-16T06:27:08;2.80;;;1.25;;
76332;SDS011;71254;53.010;6.508;2024-01-16T06:29:34;4.93;;;1.23;;
76332;SDS011;71254;53.010;6.508;2024-01-16T06:31:59;4.65;;;1.40;;
76332;SDS011;71254;53.010;6.508;2024-01-16T06:34:25;6.30;;;1.50;;
76332;SDS011;71254;53.010;6.508;2024-01-16T06:36:52;5.03;;;1.52;;
76332;SDS011;71254;53.010;6.508;2024-01-16T06:39:18;3.20;;;1.27;;
76332;SDS011;71254;53.010;6.508;2024-01-16T06:41:43;3.40;;;1.17;;
76332;SDS011;71254;53.010;6.508;2024-01-16T06:44:09;4.75;;;1.42;;
76332;SDS011;71254;53.010;6.508;2024-01-16T06:46:34;6.00;;;1.23;;
76332;SDS011;71254;53.010;6.508;2024-01-16T06:49:00;3.95;;;1.00;;
76332;SDS011;71254;53.010;6.508;2024-01-16T06:51:27;3.92;;;1.27;;
76332;SDS011;71254;53.010;6.508;2024-01-16T06:53:53;4.93;;;1.23;;
76332;SDS011;71254;53.010;6.508;2024-01-16T06:56:18;5.10;;;1.35;;
76332;SDS011;71254;53.010;6.508;2024-01-16T06:58:44;3.60;;;1.10;;
76332;SDS011;71254;53.010;6.508;2024-01-16T07:01:09;2.78;;;1.00;;
76332;SDS011;71254;53.010;6.508;2024-01-16T07:03:35;3.85;;;1.40;;
76332;SDS011;71254;53.010;6.508;2024-01-16T07:06:01;3.92;;;1.27;;
76332;SDS011;71254;53.010;6.508;2024-01-16T07:08:27;6.90;;;1.80;;
76332;SDS011;71254;53.010;6.508;2024-01-16T07:10:53;6.28;;;1.42;;
76332;SDS011;71254;53.010;6.508;2024-01-16T07:13:18;7.85;;;1.45;;
76332;SDS011;71254;53.010;6.508;2024-01-16T07:15:44;5.43;;;1.08;;
76332;SDS011;71254;53.010;6.508;2024-01-16T07:18:10;4.90;;;1.23;;
76332;SDS011;71254;53.010;6.508;2024-01-16T07:20:36;3.88;;;1.02;;
76332;SDS011;71254;53.010;6.508;2024-01-16T07:23:01;5.75;;;1.20;;
76332;SDS011;71254;53.010;6.508;2024-01-16T07:25:27;7.60;;;1.58;;
76332;SDS011;71254;53.010;6.508;2024-01-16T07:27:56;5.72;;;1.23;;
76332;SDS011;71254;53.010;6.508;2024-01-16T07:30:22;7.40;;;1.48;;
76332;SDS011;71254;53.010;6.508;2024-01-16T07:32:47;4.82;;;1.65;;
76332;SDS011;71254;53.010;6.508;2024-01-16T07:35:13;6.80;;;1.48;;
76332;SDS011;71254;53.010;6.508;2024-01-16T07:37:39;3.58;;;1.23;;
76332;SDS011;71254;53.010;6.508;2024-01-16T07:40:05;6.38;;;1.75;;
76332;SDS011;71254;53.010;6.508;2024-01-16T07:42:31;3.55;;;1.10;;
76332;SDS011;71254;53.010;6.508;2024-01-16T07:44:59;2.55;;;1.10;;
76332;SDS011;71254;53.010;6.508;2024-01-16T07:47:29;4.40;;;1.13;;
76332;SDS011;71254;53.010;6.508;2024-01-16T07:49:56;3.80;;;1.15;;
76332;SDS011;71254;53.010;6.508;2024-01-16T07:52:22;5.18;;;1.13;;
76332;SDS011;71254;53.010;6.508;2024-01-16T07:54:47;6.68;;;1.48;;
76332;SDS011;71254;53.010;6.508;2024-01-16T07:57:13;7.22;;;1.42;;
76332;SDS011;71254;53.010;6.508;2024-01-16T07:59:39;5.00;;;1.30;;
76332;SDS011;71254;53.010;6.508;2024-01-16T08:02:06;3.03;;;1.30;;
76332;SDS011;71254;53.010;6.508;2024-01-16T08:04:31;4.57;;;1.20;;
76332;SDS011;71254;53.010;6.508;2024-01-16T08:06:57;3.88;;;1.27;;
76332;SDS011;71254;53.010;6.508;2024-01-16T08:09:23;2.85;;;1.52;;
76332;SDS011;71254;53.010;6.508;2024-01-16T08:11:52;5.85;;;1.50;;
76332;SDS011;71254;53.010;6.508;2024-01-16T08:14:17;5.60;;;1.85;;
76332;SDS011;71254;53.010;6.508;2024-01-16T08:16:43;3.15;;;1.75;;
76332;SDS011;71254;53.010;6.508;2024-01-16T08:19:09;5.78;;;2.10;;
76332;SDS011;71254;53.010;6.508;2024-01-16T08:21:34;7.57;;;2.50;;
76332;SDS011;71254;53.010;6.508;2024-01-16T08:24:00;10.27;;;2.90;;
76332;SDS011;71254;53.010;6.508;2024-01-16T08:26:26;7.55;;;2.22;;
76332;SDS011;71254;53.010;6.508;2024-01-16T08:28:51;6.57;;;2.80;;
76332;SDS011;71254;53.010;6.508;2024-01-16T08:31:17;6.03;;;2.40;;
76332;SDS011;71254;53.010;6.508;2024-01-16T08:33:46;6.10;;;3.00;;
76332;SDS011;71254;53.010;6.508;2024-01-16T08:36:12;6.78;;;3.13;;
76332;SDS011;71254;53.010;6.508;2024-01-16T08:38:39;9.55;;;2.97;;
76332;SDS011;71254;53.010;6.508;2024-01-16T08:41:04;6.97;;;2.55;;
76332;SDS011;71254;53.010;6.508;2024-01-16T08:43:32;4.68;;;2.80;;
76332;SDS011;71254;53.010;6.508;2024-01-16T08:45:58;6.00;;;3.20;;
76332;SDS011;71254;53.010;6.508;2024-01-16T08:48:24;7.72;;;3.33;;
76332;SDS011;71254;53.010;6.508;2024-01-16T08:50:50;9.93;;;3.58;;
76332;SDS011;71254;53.010;6.508;2024-01-16T08:53:16;6.72;;;2.90;;
76332;SDS011;71254;53.010;6.508;2024-01-16T08:55:42;8.45;;;3.30;;
76332;SDS011;71254;53.010;6.508;2024-01-16T08:58:07;8.00;;;4.00;;
76332;SDS011;71254;53.010;6.508;2024-01-16T09:00:33;7.85;;;3.72;;
76332;SDS011;71254;53.010;6.508;2024-01-16T09:03:01;9.80;;;3.78;;
76332;SDS011;71254;53.010;6.508;2024-01-16T09:05:27;7.80;;;3.83;;
76332;SDS011;71254;53.010;6.508;2024-01-16T09:07:53;12.55;;;4.00;;
76332;SDS011;71254;53.010;6.508;2024-01-16T09:10:18;6.50;;;3.33;;
76332;SDS011;71254;53.010;6.508;2024-01-16T09:12:45;6.53;;;3.25;;
76332;SDS011;71254;53.010;6.508;2024-01-16T09:15:10;4.85;;;3.15;;
76332;SDS011;71254;53.010;6.508;2024-01-16T09:17:36;5.72;;;3.90;;
76332;SDS011;71254;53.010;6.508;2024-01-16T09:20:01;5.80;;;3.75;;
76332;SDS011;71254;53.010;6.508;2024-01-16T09:22:27;12.70;;;3.60;;
76332;SDS011;71254;53.010;6.508;2024-01-16T09:24:53;7.20;;;3.10;;
76332;SDS011;71254;53.010;6.508;2024-01-16T09:27:19;6.22;;;3.38;;
76332;SDS011;71254;53.010;6.508;2024-01-16T09:29:44;6.75;;;2.85;;
76332;SDS011;71254;53.010;6.508;2024-01-16T09:32:10;4.90;;;2.33;;
76332;SDS011;71254;53.010;6.508;2024-01-16T09:34:38;7.07;;;2.63;;
76332;SDS011;71254;53.010;6.508;2024-01-16T09:37:04;5.03;;;2.65;;
76332;SDS011;71254;53.010;6.508;2024-01-16T09:39:30;7.63;;;2.00;;
76332;SDS011;71254;53.010;6.508;2024-01-16T09:41:57;5.03;;;2.33;;
76332;SDS011;71254;53.010;6.508;2024-01-16T09:44:26;5.70;;;2.70;;
76332;SDS011;71254;53.010;6.508;2024-01-16T09:46:52;4.53;;;2.03;;
76332;SDS011;71254;53.010;6.508;2024-01-16T09:49:20;3.85;;;1.80;;
76332;SDS011;71254;53.010;6.508;2024-01-16T09:51:46;5.00;;;1.88;;
76332;SDS011;71254;53.010;6.508;2024-01-16T09:54:12;6.00;;;2.42;;
76332;SDS011;71254;53.010;6.508;2024-01-16T09:56:39;6.93;;;3.00;;
76332;SDS011;71254;53.010;6.508;2024-01-16T09:59:14;4.45;;;2.72;;
76332;SDS011;71254;53.010;6.508;2024-01-16T10:01:42;6.38;;;3.10;;
76332;SDS011;71254;53.010;6.508;2024-01-16T10:04:08;5.95;;;3.65;;
76332;SDS011;71254;53.010;6.508;2024-01-16T10:06:34;8.38;;;3.45;;
76332;SDS011;71254;53.010;6.508;2024-01-16T10:09:02;7.68;;;4.05;;
76332;SDS011;71254;53.010;6.508;2024-01-16T10:11:28;8.60;;;3.97;;
76332;SDS011;71254;53.010;6.508;2024-01-16T10:13:54;9.38;;;4.25;;
76332;SDS011;71254;53.010;6.508;2024-01-16T10:16:20;10.15;;;4.97;;
76332;SDS011;71254;53.010;6.508;2024-01-16T10:18:46;8.52;;;5.57;;
76332;SDS011;71254;53.010;6.508;2024-01-16T10:21:22;12.43;;;6.07;;
76332;SDS011;71254;53.010;6.508;2024-01-16T10:23:55;9.18;;;5.20;;
76332;SDS011;71254;53.010;6.508;2024-01-16T10:26:35;10.13;;;5.63;;
76332;SDS011;71254;53.010;6.508;2024-01-16T10:29:03;10.02;;;5.22;;
76332;SDS011;71254;53.010;6.508;2024-01-16T10:31:29;11.88;;;6.28;;
76332;SDS011;71254;53.010;6.508;2024-01-16T10:33:56;9.55;;;5.40;;
76332;SDS011;71254;53.010;6.508;2024-01-16T10:36:23;12.68;;;6.25;;
76332;SDS011;71254;53.010;6.508;2024-01-16T10:38:50;10.05;;;6.25;;
76332;SDS011;71254;53.010;6.508;2024-01-16T10:41:23;10.60;;;6.15;;
76332;SDS011;71254;53.010;6.508;2024-01-16T10:44:04;10.63;;;6.10;;
76332;SDS011;71254;53.010;6.508;2024-01-16T10:46:34;10.77;;;6.05;;
76332;SDS011;71254;53.010;6.508;2024-01-16T10:49:02;10.25;;;6.53;;
76332;SDS011;71254;53.010;6.508;2024-01-16T10:51:29;9.65;;;6.18;;
76332;SDS011;71254;53.010;6.508;2024-01-16T10:54:02;10.70;;;6.00;;
76332;SDS011;71254;53.010;6.508;2024-01-16T10:56:33;9.70;;;5.07;;
76332;SDS011;71254;53.010;6.508;2024-01-16T11:01:27;6.63;;;4.28;;
76332;SDS011;71254;53.010;6.508;2024-01-16T11:03:54;4.30;;;3.22;;
76332;SDS011;71254;53.010;6.508;2024-01-16T11:06:22;8.57;;;3.13;;
76332;SDS011;71254;53.010;6.508;2024-01-16T11:08:49;5.63;;;2.92;;
76332;SDS011;71254;53.010;6.508;2024-01-16T11:11:15;3.83;;;2.80;;
76332;SDS011;71254;53.010;6.508;2024-01-16T11:13:41;5.63;;;1.95;;
76332;SDS011;71254;53.010;6.508;2024-01-16T11:16:11;3.97;;;1.90;;
76332;SDS011;71254;53.010;6.508;2024-01-16T11:18:37;3.47;;;1.63;;
76332;SDS011;71254;53.010;6.508;2024-01-16T11:21:06;2.63;;;1.60;;
76332;SDS011;71254;53.010;6.508;2024-01-16T11:23:40;3.80;;;1.63;;
76332;SDS011;71254;53.010;6.508;2024-01-16T11:26:25;2.47;;;1.98;;
76332;SDS011;71254;53.010;6.508;2024-01-16T11:28:57;3.15;;;1.60;;
76332;SDS011;71254;53.010;6.508;2024-01-16T11:33:58;5.82;;;2.25;;
76332;SDS011;71254;53.010;6.508;2024-01-16T11:39:24;3.17;;;2.00;;
76332;SDS011;71254;53.010;6.508;2024-01-16T11:41:51;4.28;;;1.90;;
76332;SDS011;71254;53.010;6.508;2024-01-16T11:47:02;3.80;;;1.80;;
76332;SDS011;71254;53.010;6.508;2024-01-16T11:49:29;3.97;;;1.58;;
76332;SDS011;71254;53.010;6.508;2024-01-16T11:52:00;4.35;;;1.70;;
76332;SDS011;71254;53.010;6.508;2024-01-16T11:54:26;7.20;;;1.88;;
76332;SDS011;71254;53.010;6.508;2024-01-16T12:02:00;2.97;;;1.50;;
76332;SDS011;71254;53.010;6.508;2024-01-16T12:04:30;5.40;;;1.80;;
76332;SDS011;71254;53.010;6.508;2024-01-16T12:06:56;4.38;;;1.75;;
76332;SDS011;71254;53.010;6.508;2024-01-16T12:09:25;5.45;;;1.70;;
76332;SDS011;71254;53.010;6.508;2024-01-16T12:12:02;4.05;;;1.67;;
76332;SDS011;71254;53.010;6.508;2024-01-16T12:14:28;5.07;;;1.65;;
76332;SDS011;71254;53.010;6.508;2024-01-16T12:17:10;5.25;;;1.73;;
76332;SDS011;71254;53.010;6.508;2024-01-16T12:19:37;5.78;;;2.42;;
76332;SDS011;71254;53.010;6.508;2024-01-16T12:22:05;4.00;;;1.90;;
76332;SDS011;71254;53.010;6.508;2024-01-16T12:24:34;4.53;;;2.50;;
76332;SDS011;71254;53.010;6.508;2024-01-16T12:27:00;5.53;;;2.53;;
76332;SDS011;71254;53.010;6.508;2024-01-16T12:29:26;6.38;;;2.60;;
76332;SDS011;71254;53.010;6.508;2024-01-16T12:32:04;6.50;;;2.70;;
76332;SDS011;71254;53.010;6.508;2024-01-16T12:34:34;8.88;;;3.65;;
76332;SDS011;71254;53.010;6.508;2024-01-16T12:37:06;7.13;;;3.30;;
76332;SDS011;71254;53.010;6.508;2024-01-16T12:39:33;9.38;;;4.68;;
76332;SDS011;71254;53.010;6.508;2024-01-16T12:42:00;6.45;;;4.43;;
76332;SDS011;71254;53.010;6.508;2024-01-16T12:44:29;6.60;;;3.67;;
76332;SDS011;71254;53.010;6.508;2024-01-16T12:46:56;6.93;;;3.83;;
76332;SDS011;71254;53.010;6.508;2024-01-16T12:49:22;11.27;;;4.70;;
76332;SDS011;71254;53.010;6.508;2024-01-16T12:51:49;9.25;;;4.30;;
76332;SDS011;71254;53.010;6.508;2024-01-16T12:54:15;12.48;;;4.47;;
76332;SDS011;71254;53.010;6.508;2024-01-16T12:56:46;7.38;;;3.95;;
76332;SDS011;71254;53.010;6.508;2024-01-16T12:59:22;9.30;;;4.25;;
76332;SDS011;71254;53.010;6.508;2024-01-16T13:01:54;7.80;;;4.45;;
76332;SDS011;71254;53.010;6.508;2024-01-16T13:04:20;8.48;;;4.20;;
76332;SDS011;71254;53.010;6.508;2024-01-16T13:06:46;10.80;;;4.80;;
76332;SDS011;71254;53.010;6.508;2024-01-16T13:09:13;10.27;;;4.90;;
76332;SDS011;71254;53.010;6.508;2024-01-16T13:11:52;9.57;;;4.50;;
76332;SDS011;71254;53.010;6.508;2024-01-16T13:14:20;7.47;;;4.60;;
76332;SDS011;71254;53.010;6.508;2024-01-16T13:16:47;6.90;;;4.57;;
76332;SDS011;71254;53.010;6.508;2024-01-16T13:19:17;12.77;;;4.93;;
76332;SDS011;71254;53.010;6.508;2024-01-16T13:21:43;7.88;;;4.75;;
76332;SDS011;71254;53.010;6.508;2024-01-16T13:24:09;7.68;;;5.00;;
76332;SDS011;71254;53.010;6.508;2024-01-16T13:26:36;8.80;;;5.32;;
76332;SDS011;71254;53.010;6.508;2024-01-16T13:29:02;10.52;;;4.90;;
76332;SDS011;71254;53.010;6.508;2024-01-16T13:31:32;10.77;;;5.35;;
76332;SDS011;71254;53.010;6.508;2024-01-16T13:33:57;9.48;;;5.18;;
76332;SDS011;71254;53.010;6.508;2024-01-16T13:36:23;8.38;;;5.60;;
76332;SDS011;71254;53.010;6.508;2024-01-16T13:38:50;9.75;;;5.43;;
76332;SDS011;71254;53.010;6.508;2024-01-16T13:41:16;10.02;;;5.25;;
76332;SDS011;71254;53.010;6.508;2024-01-16T13:43:41;9.57;;;6.30;;
76332;SDS011;71254;53.010;6.508;2024-01-16T13:46:11;8.65;;;5.40;;
76332;SDS011;71254;53.010;6.508;2024-01-16T13:48:38;9.90;;;5.88;;
76332;SDS011;71254;53.010;6.508;2024-01-16T13:51:06;7.95;;;5.07;;
76332;SDS011;71254;53.010;6.508;2024-01-16T13:53:32;12.70;;;5.40;;
76332;SDS011;71254;53.010;6.508;2024-01-16T13:55:59;10.38;;;5.72;;
76332;SDS011;71254;53.010;6.508;2024-01-16T13:58:25;10.45;;;5.53;;
76332;SDS011;71254;53.010;6.508;2024-01-16T14:00:51;9.50;;;5.43;;
76332;SDS011;71254;53.010;6.508;2024-01-16T14:03:17;10.77;;;5.88;;
76332;SDS011;71254;53.010;6.508;2024-01-16T14:05:47;11.48;;;5.70;;
76332;SDS011;71254;53.010;6.508;2024-01-16T14:08:13;7.68;;;4.93;;
76332;SDS011;71254;53.010;6.508;2024-01-16T14:10:39;10.80;;;5.53;;
76332;SDS011;71254;53.010;6.508;2024-01-16T14:13:05;8.15;;;4.70;;
76332;SDS011;71254;53.010;6.508;2024-01-16T14:15:31;7.25;;;4.30;;
76332;SDS011;71254;53.010;6.508;2024-01-16T14:17:57;8.23;;;4.13;;
76332;SDS011;71254;53.010;6.508;2024-01-16T14:20:24;7.13;;;3.85;;
76332;SDS011;71254;53.010;6.508;2024-01-16T14:22:52;7.95;;;3.63;;
76332;SDS011;71254;53.010;6.508;2024-01-16T14:25:18;7.22;;;3.30;;
76332;SDS011;71254;53.010;6.508;2024-01-16T14:27:45;5.55;;;3.20;;
76332;SDS011;71254;53.010;6.508;2024-01-16T14:30:14;6.17;;;3.23;;
76332;SDS011;71254;53.010;6.508;2024-01-16T14:32:41;7.85;;;3.33;;
76332;SDS011;71254;53.010;6.508;2024-01-16T14:35:08;6.25;;;2.75;;
76332;SDS011;71254;53.010;6.508;2024-01-16T14:37:35;6.53;;;3.13;;
76332;SDS011;71254;53.010;6.508;2024-01-16T14:40:02;6.70;;;2.78;;
76332;SDS011;71254;53.010;6.508;2024-01-16T14:42:38;5.45;;;2.78;;
76332;SDS011;71254;53.010;6.508;2024-01-16T14:45:04;6.78;;;3.40;;
76332;SDS011;71254;53.010;6.508;2024-01-16T14:47:31;5.13;;;2.63;;
76332;SDS011;71254;53.010;6.508;2024-01-16T14:49:56;5.15;;;2.90;;
76332;SDS011;71254;53.010;6.508;2024-01-16T14:52:22;6.40;;;3.20;;
76332;SDS011;71254;53.010;6.508;2024-01-16T14:54:48;6.55;;;3.30;;
76332;SDS011;71254;53.010;6.508;2024-01-16T14:57:15;7.90;;;3.22;;
76332;SDS011;71254;53.010;6.508;2024-01-16T14:59:41;5.30;;;3.03;;
76332;SDS011;71254;53.010;6.508;2024-01-16T15:02:07;7.82;;;3.20;;
76332;SDS011;71254;53.010;6.508;2024-01-16T15:04:41;5.57;;;2.83;;